TimeAWST,TemperatureF,Dew PointF,Humidity,Sea Level PressureIn,VisibilityMPH,Wind Direction,Wind SpeedMPH,Gust SpeedMPH,PrecipitationIn,Events,Conditions,WindDirDegrees,DateUTC
12:00 AM,88,29,5,29.75,,WSW,9.2,,,,,240,2013-10-05 16:00:00
12:00 AM,87.8,28.4,12,29.80,-9999.0,WSW,9.2,-,N/A,,Unknown,240,2013-10-05 16:00:00
12:05 AM,78.8,37.4,23,29.80,-9999.0,North,12.7,-,N/A,,Unknown,360,2013-10-05 16:05:00
1:00 AM,82.4,33.8,17,29.80,-9999.0,NW,5.8,-,N/A,,Unknown,320,2013-10-05 17:00:00
2:00 AM,79,37,13,29.72,,West,6.9,,,,,280,2013-10-05 18:00:00
2:00 AM,78.8,37.4,23,29.77,-9999.0,West,6.9,-,N/A,,Unknown,280,2013-10-05 18:00:00
3:00 AM,77,35,13,29.72,,WNW,9.2,,,,,290,2013-10-05 19:00:00
3:00 AM,77.0,35.6,22,29.77,-9999.0,WNW,9.2,-,N/A,,Unknown,290,2013-10-05 19:00:00
4:00 AM,77.0,37.4,24,29.77,-9999.0,West,8.1,-,N/A,,Unknown,260,2013-10-05 20:00:00
5:00 AM,70,38,20,29.74,,Calm,Calm,,,,,,2013-10-05 21:00:00
5:00 AM,69.8,37.4,31,29.77,-9999.0,Calm,Calm,-,N/A,,Unknown,0,2013-10-05 21:00:00
6:00 AM,77,36,13,29.77,,West,13.8,,,,,260,2013-10-05 22:00:00
6:00 AM,77.0,35.6,22,29.80,-9999.0,WSW,13.8,-,N/A,,Unknown,250,2013-10-05 22:00:00
7:00 AM,80.6,35.6,20,29.83,-9999.0,SW,9.2,-,N/A,,Unknown,220,2013-10-05 23:00:00
8:00 AM,89,33,7,29.80,,SW,11.5,,,,,220,2013-10-06 00:00:00
8:00 AM,87.8,33.8,15,29.83,-9999.0,SW,11.5,-,N/A,,Unknown,220,2013-10-06 00:00:00
9:00 AM,95,34,6,29.80,,South,12.7,,,,,180,2013-10-06 01:00:00
9:00 AM,95.0,33.8,12,29.86,-9999.0,South,12.7,-,N/A,,Unknown,180,2013-10-06 01:00:00
10:00 AM,96.8,-4.0,4,29.86,-9999.0,South,11.5,-,N/A,,Unknown,170,2013-10-06 02:00:00
11:00 AM,100,31,4,29.78,,SSW,9.2,,,,,200,2013-10-06 03:00:00
11:00 AM,100.4,32.0,9,29.83,-9999.0,SSW,9.2,-,N/A,,Unknown,200,2013-10-06 03:00:00
12:00 PM,99,-17,4,29.76,,ESE,5.8,,,,,120,2013-10-06 04:00:00
12:00 PM,98.6,-16.6,4,29.80,-9999.0,ESE,5.8,-,N/A,,Unknown,120,2013-10-06 04:00:00
1:00 PM,104.0,30.2,8,29.77,-9999.0,NW,5.8,-,N/A,,Unknown,320,2013-10-06 05:00:00
2:00 PM,105,32,4,29.71,,WNW,12.7,,,,,300,2013-10-06 06:00:00
2:00 PM,105.8,32.0,8,29.74,-9999.0,WNW,12.7,-,N/A,,Unknown,300,2013-10-06 06:00:00
3:00 PM,101,29,4,29.69,,NW,9.2,,,,,320,2013-10-06 07:00:00
3:00 PM,102.2,28.4,7,29.74,-9999.0,NW,9.2,-,N/A,,Unknown,320,2013-10-06 07:00:00
4:00 PM,102.2,30.2,8,29.74,-9999.0,WNW,10.4,-,N/A,,Unknown,290,2013-10-06 08:00:00
5:00 PM,101,31,4,29.70,,WSW,8.1,,,,,250,2013-10-06 09:00:00
5:00 PM,100.4,32.0,9,29.74,-9999.0,WSW,8.1,-,N/A,,Unknown,250,2013-10-06 09:00:00
6:00 PM,97,31,4,29.72,,West,5.8,,,,,270,2013-10-06 10:00:00
6:00 PM,96.8,30.2,10,29.77,-9999.0,West,5.8,-,N/A,,Unknown,270,2013-10-06 10:00:00
7:00 PM,95.0,32.0,11,29.77,-9999.0,SW,4.6,-,N/A,,Unknown,220,2013-10-06 11:00:00
8:00 PM,92,33,6,29.75,,SW,6.9,,,,,230,2013-10-06 12:00:00
8:00 PM,93.2,32.0,11,29.80,-9999.0,SW,6.9,-,N/A,,Unknown,230,2013-10-06 12:00:00
9:00 PM,92,32,6,29.76,,WSW,4.6,,,,,240,2013-10-06 13:00:00
9:00 PM,91.4,32.0,12,29.80,-9999.0,WSW,4.6,-,N/A,,Unknown,240,2013-10-06 13:00:00
10:00 PM,91.4,33.8,13,29.80,-9999.0,SSW,5.8,-,N/A,,Unknown,210,2013-10-06 14:00:00
11:00 PM,83,35,10,29.75,,SSW,4.6,,,,,210,2013-10-06 15:00:00
11:00 PM,84.2,35.6,18,29.80,-9999.0,SSW,4.6,-,N/A,,Unknown,210,2013-10-06 15:00:00